Time;durP1;ratioP1;P1;durP2;ratioP2;P2;SDS_P1;SDS_P2;PMS_P1;PMS_P2;Temp;Humidity;BMP_temperature;BMP_pressure;BME280_temperature;BME280_humidity;BME280_pressure;Samples;Min_cycle;Max_cycle;Signal;HPM_P1;HPM_P2
2023/03/13 00:00:18;;;;;;;10.40;3.43;;;;;;;;;;5088138;28;20403;-45
2023/03/13 00:02:44;;;;;;;10.13;3.33;;;;;;;;;;5095381;28;20442;-46
2023/03/13 00:05:13;;;;;;;17.90;4.50;;;;;;;;;;5097312;28;20528;-45
2023/03/13 00:07:39;;;;;;;17.77;4.90;;;;;;;;;;5096910;28;20412;-47
2023/03/13 00:10:06;;;;;;;11.63;3.47;;;;;;;;;;5096247;28;20408;-45
2023/03/13 00:12:33;;;;;;;12.30;3.00;;;;;;;;;;5096522;28;20453;-46
2023/03/13 00:14:59;;;;;;;18.17;5.60;;;;;;;;;;5092111;28;20534;-45
2023/03/13 00:17:25;;;;;;;19.10;4.00;;;;;;;;;;5095673;28;20494;-45
2023/03/13 00:19:51;;;;;;;7.93;3.00;;;;;;;;;;5096802;28;20411;-45
2023/03/13 00:22:17;;;;;;;13.33;3.47;;;;;;;;;;5096374;28;20785;-44
2023/03/13 00:24:45;;;;;;;20.37;4.47;;;;;;;;;;5095882;28;20441;-46
2023/03/13 00:27:11;;;;;;;13.13;3.90;;;;;;;;;;5088154;28;20468;-46
2023/03/13 00:29:37;;;;;;;18.53;3.90;;;;;;;;;;5095342;28;20682;-46
2023/03/13 00:32:03;;;;;;;9.73;3.60;;;;;;;;;;5094533;28;20429;-44
2023/03/13 00:34:29;;;;;;;8.97;3.50;;;;;;;;;;5094807;28;20399;-46
2023/03/13 00:36:55;;;;;;;16.27;4.17;;;;;;;;;;5096947;28;20494;-44
2023/03/13 00:39:21;;;;;;;14.57;3.77;;;;;;;;;;5097271;28;20404;-45
2023/03/13 00:41:47;;;;;;;10.90;3.10;;;;;;;;;;5088445;28;20440;-46
2023/03/13 00:44:13;;;;;;;9.20;3.73;;;;;;;;;;5096366;28;20411;-45
2023/03/13 00:46:39;;;;;;;12.17;3.43;;;;;;;;;;5098150;28;20415;-45
2023/03/13 00:49:06;;;;;;;15.07;3.83;;;;;;;;;;5097756;28;20465;-45
2023/03/13 00:51:32;;;;;;;14.27;4.07;;;;;;;;;;5097272;28;20510;-44
2023/03/13 00:54:02;;;;;;;9.10;3.40;;;;;;;;;;5091761;28;20443;-44
2023/03/13 00:56:29;;;;;;;19.40;4.50;;;;;;;;;;5087883;28;20411;-45
2023/03/13 00:58:55;;;;;;;23.50;4.67;;;;;;;;;;5094899;28;20462;-45
2023/03/13 01:01:25;;;;;;;23.30;3.60;;;;;;;;;;5096635;28;20408;-45
2023/03/13 01:03:52;;;;;;;10.53;3.10;;;;;;;;;;5097329;28;20445;-45
2023/03/13 01:06:21;;;;;;;29.73;5.30;;;;;;;;;;5097252;28;20487;-45
2023/03/13 01:08:47;;;;;;;13.63;3.80;;;;;;;;;;5097477;28;20509;-44
2023/03/13 01:11:14;;;;;;;11.33;3.13;;;;;;;;;;5097278;28;20412;-46
2023/03/13 01:13:41;;;;;;;12.20;3.50;;;;;;;;;;5097792;28;20434;-45
2023/03/13 01:16:08;;;;;;;9.63;3.23;;;;;;;;;;5097620;28;20439;-45
2023/03/13 01:18:35;;;;;;;13.40;3.43;;;;;;;;;;5096417;28;20529;-47
2023/03/13 01:21:01;;;;;;;11.37;3.70;;;;;;;;;;5095341;28;20425;-46
2023/03/13 01:23:27;;;;;;;6.50;2.47;;;;;;;;;;5095622;28;20434;-47
2023/03/13 01:25:54;;;;;;;10.07;3.17;;;;;;;;;;5093469;28;20464;-46
2023/03/13 01:28:20;;;;;;;21.30;3.50;;;;;;;;;;5088853;28;20454;-45
2023/03/13 01:30:46;;;;;;;15.67;3.73;;;;;;;;;;5095403;28;20424;-46
2023/03/13 01:33:12;;;;;;;26.20;4.83;;;;;;;;;;5096129;28;20460;-46
2023/03/13 01:35:38;;;;;;;16.53;3.93;;;;;;;;;;5095069;28;20506;-46
2023/03/13 01:38:04;;;;;;;12.73;3.57;;;;;;;;;;5096562;28;20408;-46
2023/03/13 01:40:30;;;;;;;8.00;3.43;;;;;;;;;;5095569;28;20419;-46
2023/03/13 01:42:58;;;;;;;15.07;4.40;;;;;;;;;;5097910;28;20446;-45
2023/03/13 01:45:42;;;;;;;10.63;3.07;;;;;;;;;;5097075;28;20973;-45
2023/03/13 01:48:08;;;;;;;10.63;3.90;;;;;;;;;;5086881;28;20500;-44
2023/03/13 01:50:34;;;;;;;20.43;4.70;;;;;;;;;;5087347;28;20404;-44
2023/03/13 01:53:00;;;;;;;17.10;3.80;;;;;;;;;;5085024;28;20478;-44
2023/03/13 01:55:26;;;;;;;10.23;4.20;;;;;;;;;;5091580;28;20400;-44
2023/03/13 01:57:53;;;;;;;7.80;2.63;;;;;;;;;;5089411;28;20995;-44
2023/03/13 02:00:21;;;;;;;15.67;3.70;;;;;;;;;;5090745;28;20426;-44
2023/03/13 02:02:50;;;;;;;23.53;4.03;;;;;;;;;;5091276;28;20974;-45
2023/03/13 02:05:16;;;;;;;13.23;4.43;;;;;;;;;;5092186;28;20464;-44
2023/03/13 02:07:45;;;;;;;11.93;4.10;;;;;;;;;;5091342;28;20505;-44
2023/03/13 02:10:12;;;;;;;16.07;3.37;;;;;;;;;;5083616;28;20399;-45
2023/03/13 02:12:39;;;;;;;13.97;3.27;;;;;;;;;;5089753;28;20477;-45
2023/03/13 02:15:16;;;;;;;13.90;4.87;;;;;;;;;;5091948;28;20411;-45
2023/03/13 02:17:43;;;;;;;10.43;3.87;;;;;;;;;;5092242;28;20849;-45
2023/03/13 02:20:10;;;;;;;12.73;3.33;;;;;;;;;;5083376;28;20410;-44
2023/03/13 02:22:39;;;;;;;16.87;4.17;;;;;;;;;;5091316;28;20493;-45
2023/03/13 02:25:23;;;;;;;16.87;3.40;;;;;;;;;;5091908;28;20824;-44
2023/03/13 02:27:57;;;;;;;18.07;4.30;;;;;;;;;;5085745;28;20458;-44
2023/03/13 02:30:23;;;;;;;16.63;4.00;;;;;;;;;;5090445;28;20492;-45
2023/03/13 02:32:50;;;;;;;16.83;4.07;;;;;;;;;;5090792;28;20791;-46
2023/03/13 02:35:18;;;;;;;14.50;4.20;;;;;;;;;;5084539;28;20406;-45
2023/03/13 02:37:46;;;;;;;10.70;3.60;;;;;;;;;;5091252;28;20408;-44
2023/03/13 02:40:13;;;;;;;14.83;4.60;;;;;;;;;;5091194;28;20433;-44
2023/03/13 02:42:41;;;;;;;11.43;3.70;;;;;;;;;;5091908;28;20483;-44
2023/03/13 02:45:07;;;;;;;16.00;5.80;;;;;;;;;;5091769;28;20422;-44
2023/03/13 02:47:33;;;;;;;13.43;3.43;;;;;;;;;;5091628;28;20418;-44
2023/03/13 02:49:59;;;;;;;14.00;4.03;;;;;;;;;;5091102;28;20485;-44
2023/03/13 02:52:30;;;;;;;6.90;3.80;;;;;;;;;;5091207;28;20426;-44
2023/03/13 02:55:01;;;;;;;14.40;5.00;;;;;;;;;;5087982;28;20740;-44
2023/03/13 02:57:28;;;;;;;17.70;4.63;;;;;;;;;;5091384;28;20404;-45
2023/03/13 02:59:54;;;;;;;11.27;4.47;;;;;;;;;;5095854;28;20449;-44
2023/03/13 03:02:21;;;;;;;21.17;4.33;;;;;;;;;;5095008;28;20434;-44
2023/03/13 03:04:47;;;;;;;12.80;4.07;;;;;;;;;;5092478;28;20427;-46
2023/03/13 03:07:13;;;;;;;8.80;4.37;;;;;;;;;;5092431;28;20405;-44
2023/03/13 03:09:39;;;;;;;15.03;4.73;;;;;;;;;;5095583;28;20518;-45
2023/03/13 03:12:05;;;;;;;19.00;4.37;;;;;;;;;;5088373;28;20436;-44
2023/03/13 03:14:31;;;;;;;11.67;4.37;;;;;;;;;;5088796;28;20416;-44
2023/03/13 03:16:57;;;;;;;16.57;4.47;;;;;;;;;;5093901;28;20468;-44
2023/03/13 03:19:23;;;;;;;14.00;4.03;;;;;;;;;;5095487;28;20438;-45
2023/03/13 03:21:49;;;;;;;13.93;4.00;;;;;;;;;;5094678;28;20495;-44
2023/03/13 03:24:15;;;;;;;11.50;4.70;;;;;;;;;;5091585;28;20414;-44
2023/03/13 03:26:41;;;;;;;12.20;4.43;;;;;;;;;;5086580;28;20441;-45
2023/03/13 03:29:07;;;;;;;7.13;3.70;;;;;;;;;;5095646;28;20446;-45
2023/03/13 03:31:33;;;;;;;14.37;5.90;;;;;;;;;;5094543;28;20407;-45
2023/03/13 03:33:59;;;;;;;11.97;4.70;;;;;;;;;;5094805;28;20411;-45
2023/03/13 03:36:26;;;;;;;10.13;4.03;;;;;;;;;;5095191;28;20497;-45
2023/03/13 03:38:52;;;;;;;8.97;4.33;;;;;;;;;;5094982;28;20451;-46
2023/03/13 03:41:18;;;;;;;12.80;4.03;;;;;;;;;;5094476;28;20449;-46
2023/03/13 03:43:46;;;;;;;9.83;3.70;;;;;;;;;;5094835;28;20442;-46
2023/03/13 03:46:12;;;;;;;10.77;3.30;;;;;;;;;;5094601;28;20446;-45
2023/03/13 03:48:38;;;;;;;6.80;3.30;;;;;;;;;;5094769;28;20531;-45
2023/03/13 03:51:05;;;;;;;12.03;3.73;;;;;;;;;;5094258;28;20491;-45
2023/03/13 03:53:31;;;;;;;10.53;4.20;;;;;;;;;;5094781;28;20942;-45
2023/03/13 03:55:57;;;;;;;11.17;3.87;;;;;;;;;;5090892;28;20939;-45
2023/03/13 03:58:23;;;;;;;6.03;3.27;;;;;;;;;;5087685;28;20411;-45
2023/03/13 04:00:49;;;;;;;14.60;3.63;;;;;;;;;;5093831;28;20414;-45
2023/03/13 04:03:15;;;;;;;5.30;3.87;;;;;;;;;;5094855;28;20480;-45
2023/03/13 04:05:42;;;;;;;11.07;3.50;;;;;;;;;;5094636;28;20769;-45
2023/03/13 04:08:08;;;;;;;13.83;3.47;;;;;;;;;;5094425;28;20538;-45
2023/03/13 04:10:35;;;;;;;5.63;3.10;;;;;;;;;;5093888;28;20407;-44
2023/03/13 04:13:01;;;;;;;3.47;2.80;;;;;;;;;;5094323;28;20431;-44
2023/03/13 04:15:27;;;;;;;6.47;2.90;;;;;;;;;;5094198;28;20572;-45
2023/03/13 04:17:53;;;;;;;6.77;2.90;;;;;;;;;;5094401;28;20408;-45
2023/03/13 04:20:19;;;;;;;2.60;2.40;;;;;;;;;;5093709;28;20950;-45
2023/03/13 04:22:44;;;;;;;3.30;2.20;;;;;;;;;;5094075;28;20818;-45
2023/03/13 04:25:10;;;;;;;3.90;2.33;;;;;;;;;;5094280;28;20392;-45
2023/03/13 04:27:36;;;;;;;3.43;2.53;;;;;;;;;;5086320;28;20941;-45
2023/03/13 04:30:03;;;;;;;2.27;2.03;;;;;;;;;;5093159;28;20427;-45
2023/03/13 04:32:29;;;;;;;11.93;2.90;;;;;;;;;;5091992;28;20427;-45
2023/03/13 04:34:55;;;;;;;3.97;2.37;;;;;;;;;;5094061;28;20495;-45
2023/03/13 04:37:21;;;;;;;3.97;2.50;;;;;;;;;;5094138;28;20404;-44
2023/03/13 04:39:47;;;;;;;2.73;2.53;;;;;;;;;;5084761;28;20514;-45
2023/03/13 04:42:13;;;;;;;7.10;2.40;;;;;;;;;;5093025;28;20456;-45
2023/03/13 04:44:39;;;;;;;4.93;3.00;;;;;;;;;;5093849;28;20765;-45
2023/03/13 04:47:05;;;;;;;3.50;3.00;;;;;;;;;;5094042;28;20456;-45
2023/03/13 04:49:31;;;;;;;7.13;3.00;;;;;;;;;;5089472;28;20495;-45
2023/03/13 04:51:57;;;;;;;7.77;3.30;;;;;;;;;;5087776;28;20478;-46
2023/03/13 04:54:23;;;;;;;5.50;3.37;;;;;;;;;;5093745;28;20814;-46
2023/03/13 04:56:49;;;;;;;4.37;3.33;;;;;;;;;;5093503;28;20834;-45
2023/03/13 04:59:15;;;;;;;4.40;3.60;;;;;;;;;;5093570;28;20414;-45
2023/03/13 05:01:41;;;;;;;5.70;3.33;;;;;;;;;;5093018;28;20426;-46
2023/03/13 05:04:08;;;;;;;4.27;3.70;;;;;;;;;;5084963;28;20952;-45
2023/03/13 05:06:34;;;;;;;4.40;3.30;;;;;;;;;;5089068;28;20491;-46
2023/03/13 05:09:00;;;;;;;3.90;3.50;;;;;;;;;;5093579;28;20616;-45
2023/03/13 05:11:26;;;;;;;7.33;3.90;;;;;;;;;;5091705;28;20420;-46
2023/03/13 05:13:52;;;;;;;4.97;3.77;;;;;;;;;;5093226;28;20422;-45
2023/03/13 05:16:18;;;;;;;3.73;3.43;;;;;;;;;;5093226;28;20415;-45
2023/03/13 05:18:44;;;;;;;5.20;3.90;;;;;;;;;;5091300;28;20419;-45
2023/03/13 05:21:10;;;;;;;6.60;4.30;;;;;;;;;;5083169;28;20411;-45
2023/03/13 05:24:03;;;;;;;5.43;3.30;;;;;;;;;;5088367;28;20821;-45
2023/03/13 05:26:29;;;;;;;3.80;3.30;;;;;;;;;;5087972;28;20396;-45
2023/03/13 05:28:55;;;;;;;3.17;2.77;;;;;;;;;;5091242;28;20823;-45
2023/03/13 05:31:20;;;;;;;4.30;3.13;;;;;;;;;;5086550;28;20399;-46
2023/03/13 05:33:46;;;;;;;3.37;3.07;;;;;;;;;;5092820;28;20431;-45
2023/03/13 05:36:12;;;;;;;3.70;3.13;;;;;;;;;;5092914;28;20412;-45
2023/03/13 05:38:38;;;;;;;3.40;2.90;;;;;;;;;;5092799;28;20458;-45
2023/03/13 05:41:04;;;;;;;3.90;2.90;;;;;;;;;;5090484;28;20415;-45
2023/03/13 05:43:30;;;;;;;3.50;3.20;;;;;;;;;;5092704;28;20431;-45
2023/03/13 05:45:56;;;;;;;3.40;3.10;;;;;;;;;;5092969;28;20411;-45
2023/03/13 05:48:22;;;;;;;5.93;3.13;;;;;;;;;;5092554;28;20457;-45
2023/03/13 05:50:48;;;;;;;4.87;3.70;;;;;;;;;;5091716;28;20407;-45
2023/03/13 05:53:14;;;;;;;4.10;3.50;;;;;;;;;;5086401;28;20497;-45
2023/03/13 05:55:40;;;;;;;4.40;3.40;;;;;;;;;;5086314;28;20439;-45
2023/03/13 05:58:06;;;;;;;5.57;3.40;;;;;;;;;;5089325;28;20407;-46
2023/03/13 06:00:32;;;;;;;4.30;3.63;;;;;;;;;;5091710;28;20415;-46
2023/03/13 06:02:58;;;;;;;7.73;4.00;;;;;;;;;;5092304;28;20795;-45
2023/03/13 06:05:24;;;;;;;4.67;3.63;;;;;;;;;;5091931;28;20423;-45
2023/03/13 06:07:50;;;;;;;5.27;4.53;;;;;;;;;;5089114;28;20486;-45
2023/03/13 06:10:16;;;;;;;4.67;3.90;;;;;;;;;;5091598;28;20716;-45
2023/03/13 06:12:42;;;;;;;9.73;4.13;;;;;;;;;;5092195;28;20435;-46
2023/03/13 06:15:08;;;;;;;5.30;3.73;;;;;;;;;;5091619;28;20801;-45
2023/03/13 06:17:35;;;;;;;4.43;3.40;;;;;;;;;;5092133;28;20464;-45
2023/03/13 06:20:01;;;;;;;4.73;3.57;;;;;;;;;;5091636;28;20415;-45
2023/03/13 06:22:27;;;;;;;3.70;3.20;;;;;;;;;;5091579;28;20511;-46
2023/03/13 06:24:53;;;;;;;3.43;3.13;;;;;;;;;;5090098;28;20966;-45
2023/03/13 06:27:19;;;;;;;4.23;2.90;;;;;;;;;;5092012;28;20443;-45
2023/03/13 06:29:45;;;;;;;8.43;2.90;;;;;;;;;;5084548;28;20495;-45
2023/03/13 06:32:11;;;;;;;2.90;2.70;;;;;;;;;;5082755;28;20444;-45
2023/03/13 06:34:37;;;;;;;3.63;2.90;;;;;;;;;;5091140;28;20431;-46
2023/03/13 06:37:03;;;;;;;3.13;2.80;;;;;;;;;;5089973;28;20412;-45
2023/03/13 06:39:29;;;;;;;5.10;2.70;;;;;;;;;;5091200;28;20470;-45
2023/03/13 06:41:55;;;;;;;4.60;2.83;;;;;;;;;;5091067;28;20423;-45
2023/03/13 06:44:21;;;;;;;2.70;2.50;;;;;;;;;;5091379;28;20460;-46
2023/03/13 06:46:47;;;;;;;3.37;3.00;;;;;;;;;;5091713;28;20418;-45
2023/03/13 06:49:13;;;;;;;3.20;2.30;;;;;;;;;;5088566;28;20686;-45
2023/03/13 06:51:39;;;;;;;5.10;2.50;;;;;;;;;;5088142;28;20930;-45
2023/03/13 06:54:05;;;;;;;2.70;2.10;;;;;;;;;;5082004;28;20499;-45
2023/03/13 06:56:31;;;;;;;2.53;2.33;;;;;;;;;;5091354;28;20432;-45
2023/03/13 06:58:57;;;;;;;2.80;2.23;;;;;;;;;;5089437;28;20502;-45
2023/03/13 07:01:23;;;;;;;3.90;2.40;;;;;;;;;;5089649;28;20421;-45
2023/03/13 07:03:49;;;;;;;2.73;2.43;;;;;;;;;;5091020;28;20797;-45
2023/03/13 07:06:15;;;;;;;2.17;1.93;;;;;;;;;;5090879;28;20406;-45
2023/03/13 07:08:43;;;;;;;2.50;2.30;;;;;;;;;;5090898;28;20476;-45
2023/03/13 07:11:09;;;;;;;2.83;2.27;;;;;;;;;;5082705;28;20499;-45
2023/03/13 07:13:35;;;;;;;2.00;1.90;;;;;;;;;;5089301;28;20433;-45
2023/03/13 07:16:03;;;;;;;2.90;2.50;;;;;;;;;;5091109;28;21079;-45
2023/03/13 07:18:29;;;;;;;4.20;2.20;;;;;;;;;;5085818;28;20414;-46
2023/03/13 07:20:56;;;;;;;4.73;2.30;;;;;;;;;;5083993;28;20413;-45
2023/03/13 07:23:23;;;;;;;3.50;2.40;;;;;;;;;;5091111;28;20937;-45
2023/03/13 07:25:56;;;;;;;2.30;2.10;;;;;;;;;;5086789;28;20438;-45
2023/03/13 07:28:22;;;;;;;1.87;1.77;;;;;;;;;;5090092;28;20453;-46
2023/03/13 07:30:48;;;;;;;3.10;2.47;;;;;;;;;;5088260;28;20404;-45
2023/03/13 07:33:15;;;;;;;3.27;2.43;;;;;;;;;;5090812;28;20485;-46
2023/03/13 07:35:41;;;;;;;3.27;2.27;;;;;;;;;;5085053;28;20415;-45
2023/03/13 07:38:07;;;;;;;2.27;2.07;;;;;;;;;;5091296;28;20413;-45
2023/03/13 07:40:33;;;;;;;2.33;2.13;;;;;;;;;;5089120;28;20443;-45
2023/03/13 07:42:58;;;;;;;3.83;2.30;;;;;;;;;;5091057;28;20441;-45
2023/03/13 07:45:24;;;;;;;4.77;2.23;;;;;;;;;;5094290;28;20397;-45
2023/03/13 07:47:50;;;;;;;6.30;2.27;;;;;;;;;;5093810;28;20909;-45
2023/03/13 07:50:16;;;;;;;3.20;2.77;;;;;;;;;;5094342;28;20921;-44
2023/03/13 07:52:42;;;;;;;3.53;2.53;;;;;;;;;;5093208;28;20465;-45
2023/03/13 07:55:08;;;;;;;4.03;2.20;;;;;;;;;;5091920;28;20480;-44
2023/03/13 07:57:34;;;;;;;2.87;2.50;;;;;;;;;;5094453;28;20454;-45
2023/03/13 08:00:00;;;;;;;7.97;2.37;;;;;;;;;;5093290;28;20429;-44
2023/03/13 08:02:26;;;;;;;2.40;2.27;;;;;;;;;;5092662;28;20472;-45
2023/03/13 08:04:52;;;;;;;4.60;2.57;;;;;;;;;;5094352;28;20415;-44
2023/03/13 08:07:18;;;;;;;2.90;2.70;;;;;;;;;;5094360;28;20904;-44
2023/03/13 08:09:45;;;;;;;3.50;2.60;;;;;;;;;;5094312;28;20461;-44
2023/03/13 08:12:10;;;;;;;6.90;2.60;;;;;;;;;;5085195;28;20970;-45
2023/03/13 08:14:36;;;;;;;5.73;2.53;;;;;;;;;;5089275;28;20403;-44
2023/03/13 08:17:02;;;;;;;4.83;2.23;;;;;;;;;;5093505;28;20900;-45
2023/03/13 08:19:28;;;;;;;3.10;2.90;;;;;;;;;;5094244;28;20746;-45
2023/03/13 08:21:54;;;;;;;5.90;3.20;;;;;;;;;;5093611;28;20465;-45
2023/03/13 08:24:20;;;;;;;7.67;2.53;;;;;;;;;;5094377;28;20897;-45
2023/03/13 08:26:46;;;;;;;9.20;2.63;;;;;;;;;;5093648;28;20419;-45
2023/03/13 08:29:14;;;;;;;12.20;3.20;;;;;;;;;;5092496;28;20540;-44
2023/03/13 08:31:44;;;;;;;6.93;2.43;;;;;;;;;;5088170;28;20735;-45
2023/03/13 08:34:11;;;;;;;3.40;2.70;;;;;;;;;;5084988;28;20424;-45
2023/03/13 08:36:38;;;;;;;4.87;3.97;;;;;;;;;;5089873;28;20843;-45
2023/03/13 08:39:05;;;;;;;4.00;2.47;;;;;;;;;;5093883;28;20455;-44
2023/03/13 08:41:35;;;;;;;4.43;3.30;;;;;;;;;;5093281;28;20415;-45
2023/03/13 08:44:02;;;;;;;3.00;2.77;;;;;;;;;;5092306;28;20402;-44
2023/03/13 08:46:31;;;;;;;4.70;2.10;;;;;;;;;;5090934;28;20415;-45
2023/03/13 08:48:57;;;;;;;4.90;2.57;;;;;;;;;;5093563;28;20456;-44
2023/03/13 08:51:24;;;;;;;2.80;2.53;;;;;;;;;;5093230;28;21137;-44
2023/03/13 08:53:50;;;;;;;5.53;2.60;;;;;;;;;;5093406;28;20424;-44
2023/03/13 08:56:18;;;;;;;5.27;2.80;;;;;;;;;;5092417;28;20450;-44
2023/03/13 08:58:44;;;;;;;5.80;3.10;;;;;;;;;;5087594;28;20437;-44
2023/03/13 09:01:14;;;;;;;7.97;2.97;;;;;;;;;;5089181;28;20801;-44
2023/03/13 09:03:41;;;;;;;2.87;2.20;;;;;;;;;;5088852;28;20638;-44
2023/03/13 09:06:07;;;;;;;5.93;3.30;;;;;;;;;;5093058;28;20446;-44
2023/03/13 09:08:34;;;;;;;4.93;2.90;;;;;;;;;;5085082;28;20607;-44
2023/03/13 09:11:01;;;;;;;5.30;3.00;;;;;;;;;;5089807;28;20465;-44
2023/03/13 09:13:28;;;;;;;3.47;2.80;;;;;;;;;;5092801;28;20428;-45
2023/03/13 09:15:57;;;;;;;3.50;3.13;;;;;;;;;;5093258;28;20513;-44
2023/03/13 09:18:23;;;;;;;4.60;2.73;;;;;;;;;;5092897;28;20412;-44
2023/03/13 09:20:50;;;;;;;8.77;3.03;;;;;;;;;;5092302;28;20418;-44
2023/03/13 09:23:15;;;;;;;9.37;3.30;;;;;;;;;;5092893;28;20747;-44
2023/03/13 09:25:42;;;;;;;4.40;2.37;;;;;;;;;;5091879;28;20431;-44
2023/03/13 09:28:07;;;;;;;5.70;2.87;;;;;;;;;;5089057;28;20453;-44
2023/03/13 09:30:33;;;;;;;2.63;2.30;;;;;;;;;;5091196;28;20475;-45
2023/03/13 09:32:59;;;;;;;7.23;2.73;;;;;;;;;;5092839;28;20430;-44
2023/03/13 09:35:25;;;;;;;3.63;2.63;;;;;;;;;;5086889;28;20482;-45
2023/03/13 09:37:51;;;;;;;7.63;2.93;;;;;;;;;;5092507;28;20400;-45
2023/03/13 09:40:20;;;;;;;5.23;2.40;;;;;;;;;;5090958;28;20765;-45
2023/03/13 09:42:49;;;;;;;5.13;2.23;;;;;;;;;;5092601;28;20489;-44
2023/03/13 09:45:17;;;;;;;3.53;2.77;;;;;;;;;;5092389;28;20899;-44
2023/03/13 09:47:57;;;;;;;7.50;3.30;;;;;;;;;;5091721;28;20910;-44
2023/03/13 09:50:28;;;;;;;4.30;2.87;;;;;;;;;;5091264;28;20415;-44
2023/03/13 09:52:56;;;;;;;3.53;2.83;;;;;;;;;;5091526;28;20422;-44
2023/03/13 09:55:26;;;;;;;4.67;2.60;;;;;;;;;;5092340;28;20399;-44
2023/03/13 09:57:54;;;;;;;4.40;2.57;;;;;;;;;;5088174;28;20814;-44
2023/03/13 10:00:35;;;;;;;5.73;2.60;;;;;;;;;;5091458;28;20893;-44
2023/03/13 10:03:02;;;;;;;4.17;3.10;;;;;;;;;;5092099;28;20426;-45
2023/03/13 10:05:28;;;;;;;2.70;2.37;;;;;;;;;;5092350;28;20411;-44
2023/03/13 10:07:56;;;;;;;4.10;2.23;;;;;;;;;;5091017;28;20408;-45
2023/03/13 10:10:34;;;;;;;2.70;2.50;;;;;;;;;;5091563;28;20469;-44
2023/03/13 10:13:07;;;;;;;4.20;3.10;;;;;;;;;;5092049;28;20789;-44
2023/03/13 10:15:36;;;;;;;3.40;2.33;;;;;;;;;;5092113;28;20909;-44
2023/03/13 10:18:11;;;;;;;3.97;3.07;;;;;;;;;;5091666;28;20400;-45
2023/03/13 10:20:38;;;;;;;4.83;2.50;;;;;;;;;;5091543;28;20452;-45
2023/03/13 10:23:13;;;;;;;5.90;2.50;;;;;;;;;;5091736;28;20429;-44
2023/03/13 10:25:39;;;;;;;6.60;2.43;;;;;;;;;;5092122;28;20454;-45
2023/03/13 10:28:09;;;;;;;2.70;2.20;;;;;;;;;;5090060;28;20465;-45
2023/03/13 10:30:42;;;;;;;4.10;2.20;;;;;;;;;;5087312;28;20784;-44
2023/03/13 10:33:09;;;;;;;4.07;2.57;;;;;;;;;;5083727;28;20428;-44
2023/03/13 10:35:36;;;;;;;8.90;2.57;;;;;;;;;;5091404;28;20414;-45
2023/03/13 10:38:05;;;;;;;2.43;2.23;;;;;;;;;;5091675;28;20420;-44
2023/03/13 10:40:31;;;;;;;2.23;1.90;;;;;;;;;;5090999;28;20487;-46
2023/03/13 10:43:02;;;;;;;3.50;2.00;;;;;;;;;;5091711;28;21010;-44
2023/03/13 10:45:31;;;;;;;2.63;2.40;;;;;;;;;;5086638;28;20454;-44
2023/03/13 10:48:00;;;;;;;3.73;2.30;;;;;;;;;;5091407;28;20499;-44
2023/03/13 10:50:31;;;;;;;5.30;2.20;;;;;;;;;;5090386;28;20897;-44
2023/03/13 10:52:57;;;;;;;4.10;2.13;;;;;;;;;;5090435;28;20526;-45
2023/03/13 10:55:24;;;;;;;4.40;2.13;;;;;;;;;;5089894;28;20415;-45
2023/03/13 10:58:03;;;;;;;2.30;1.80;;;;;;;;;;5085473;28;20398;-44
2023/03/13 11:00:33;;;;;;;2.37;2.17;;;;;;;;;;5089639;28;20405;-45
2023/03/13 11:02:59;;;;;;;4.77;2.10;;;;;;;;;;5090650;28;20536;-44
2023/03/13 11:05:30;;;;;;;4.00;2.03;;;;;;;;;;5091221;28;20404;-45
2023/03/13 11:07:56;;;;;;;3.10;1.80;;;;;;;;;;5089712;28;20408;-45
2023/03/13 11:10:28;;;;;;;2.30;1.93;;;;;;;;;;5090678;28;20500;-44
2023/03/13 11:12:55;;;;;;;1.80;1.70;;;;;;;;;;5091191;28;20448;-44
2023/03/13 11:15:27;;;;;;;2.40;1.60;;;;;;;;;;5091012;28;20473;-45
2023/03/13 11:18:02;;;;;;;5.00;1.40;;;;;;;;;;5090618;28;20394;-45
2023/03/13 11:20:30;;;;;;;1.87;1.60;;;;;;;;;;5094451;28;20401;-45
2023/03/13 11:23:15;;;;;;;2.87;1.63;;;;;;;;;;5094812;28;20432;-45
2023/03/13 11:25:43;;;;;;;3.90;1.90;;;;;;;;;;5094775;28;20780;-44
2023/03/13 11:28:43;;;;;;;1.30;1.20;;;;;;;;;;5084347;28;20508;-44
2023/03/13 11:31:09;;;;;;;2.73;1.87;;;;;;;;;;5092660;28;20401;-44
2023/03/13 11:33:54;;;;;;;2.27;2.17;;;;;;;;;;5094746;28;20785;-45
2023/03/13 11:36:29;;;;;;;3.63;1.60;;;;;;;;;;5088664;28;20365;-45
2023/03/13 11:39:02;;;;;;;2.77;1.53;;;;;;;;;;5094724;28;20820;-45
2023/03/13 11:41:46;;;;;;;1.60;1.50;;;;;;;;;;5092116;28;20375;-45
2023/03/13 11:44:21;;;;;;;1.63;1.53;;;;;;;;;;5088733;28;20392;-45
2023/03/13 11:46:53;;;;;;;1.40;1.30;;;;;;;;;;5094367;28;20916;-45
2023/03/13 11:49:22;;;;;;;1.20;1.10;;;;;;;;;;5094663;28;20903;-45
2023/03/13 11:52:07;;;;;;;1.87;1.50;;;;;;;;;;5094271;28;20430;-45
2023/03/13 11:54:45;;;;;;;1.60;1.50;;;;;;;;;;5094798;28;20378;-45
2023/03/13 11:57:18;;;;;;;3.27;1.50;;;;;;;;;;5086859;28;20469;-44
2023/03/13 11:59:58;;;;;;;1.83;1.30;;;;;;;;;;5089953;28;20437;-44
2023/03/13 12:02:35;;;;;;;1.93;1.70;;;;;;;;;;5093230;28;20946;-44
2023/03/13 12:05:06;;;;;;;2.40;1.73;;;;;;;;;;5094610;28;20445;-45
2023/03/13 12:07:37;;;;;;;2.60;1.40;;;;;;;;;;5095016;28;20406;-45
2023/03/13 12:10:09;;;;;;;1.53;1.37;;;;;;;;;;5091770;28;20526;-45
2023/03/13 12:13:10;;;;;;;1.57;1.47;;;;;;;;;;5094231;28;20398;-45
2023/03/13 12:15:36;;;;;;;1.20;1.10;;;;;;;;;;5070751;28;20469;-45
2023/03/13 12:18:05;;;;;;;1.40;1.30;;;;;;;;;;5084153;28;20412;-45
2023/03/13 12:20:37;;;;;;;1.33;1.20;;;;;;;;;;5089747;28;20837;-45
2023/03/13 12:23:06;;;;;;;1.77;1.20;;;;;;;;;;5094267;28;20942;-44
2023/03/13 12:25:52;;;;;;;4.93;1.30;;;;;;;;;;5093919;28;20474;-44
2023/03/13 12:28:41;;;;;;;1.40;1.30;;;;;;;;;;5086269;28;20433;-44
2023/03/13 12:31:24;;;;;;;1.77;1.40;;;;;;;;;;5084876;28;20389;-45
2023/03/13 12:33:57;;;;;;;1.60;1.50;;;;;;;;;;5094101;28;20489;-44
2023/03/13 12:36:29;;;;;;;2.13;1.60;;;;;;;;;;5088175;28;20504;-45
2023/03/13 12:38:57;;;;;;;1.30;1.20;;;;;;;;;;5088763;28;20483;-45
2023/03/13 12:41:42;;;;;;;1.37;1.20;;;;;;;;;;5092818;28;20417;-45
2023/03/13 12:44:14;;;;;;;5.07;2.53;;;;;;;;;;5085886;28;20389;-44
2023/03/13 12:46:47;;;;;;;3.07;1.63;;;;;;;;;;5093700;28;20382;-44
2023/03/13 12:49:14;;;;;;;1.40;1.30;;;;;;;;;;5084843;28;20827;-45
2023/03/13 12:51:51;;;;;;;1.40;1.13;;;;;;;;;;5089036;28;20422;-45
2023/03/13 12:54:24;;;;;;;1.23;1.13;;;;;;;;;;5086857;28;20384;-44
2023/03/13 12:57:05;;;;;;;3.03;1.30;;;;;;;;;;5093633;28;20408;-44
2023/03/13 12:59:38;;;;;;;2.70;1.30;;;;;;;;;;5093722;28;20381;-45
2023/03/13 13:02:13;;;;;;;1.50;1.37;;;;;;;;;;5092635;28;20407;-45
2023/03/13 13:04:45;;;;;;;2.17;1.57;;;;;;;;;;5093903;28;20438;-45
2023/03/13 13:07:37;;;;;;;1.37;1.27;;;;;;;;;;5085537;28;20412;-45
2023/03/13 13:10:09;;;;;;;1.10;1.00;;;;;;;;;;5079613;28;20443;-44
2023/03/13 13:12:39;;;;;;;1.53;1.43;;;;;;;;;;5088845;28;20435;-44
2023/03/13 13:15:24;;;;;;;1.40;1.30;;;;;;;;;;5090031;28;20412;-44
2023/03/13 13:17:59;;;;;;;1.30;1.20;;;;;;;;;;5093409;28;20417;-45
2023/03/13 13:20:37;;;;;;;1.30;1.10;;;;;;;;;;5092458;28;20391;-44
2023/03/13 13:23:23;;;;;;;1.53;1.43;;;;;;;;;;5092916;28;20411;-45
2023/03/13 13:25:50;;;;;;;1.60;1.27;;;;;;;;;;5092918;28;20391;-45
2023/03/13 13:28:21;;;;;;;3.10;1.40;;;;;;;;;;5093085;28;20437;-45
2023/03/13 13:30:48;;;;;;;2.27;1.63;;;;;;;;;;5089582;28;20406;-46
2023/03/13 13:33:26;;;;;;;2.13;1.43;;;;;;;;;;5093026;28;20435;-44
2023/03/13 13:36:11;;;;;;;1.37;1.23;;;;;;;;;;5092952;28;20379;-45
2023/03/13 13:38:39;;;;;;;1.50;1.30;;;;;;;;;;5091075;28;20395;-44
2023/03/13 13:41:21;;;;;;;2.50;1.30;;;;;;;;;;5091981;28;20749;-44
2023/03/13 13:43:48;;;;;;;2.23;1.57;;;;;;;;;;5089823;28;20457;-45
2023/03/13 13:46:27;;;;;;;1.83;1.73;;;;;;;;;;5091486;28;20778;-45
2023/03/13 13:49:13;;;;;;;1.37;1.27;;;;;;;;;;5092530;28;20470;-45
2023/03/13 13:51:59;;;;;;;1.60;1.50;;;;;;;;;;5092751;28;20483;-45
2023/03/13 13:54:46;;;;;;;1.47;1.37;;;;;;;;;;5085828;28;20412;-45
2023/03/13 13:57:15;;;;;;;1.33;1.23;;;;;;;;;;5089229;28;20414;-45
2023/03/13 13:59:42;;;;;;;1.30;1.20;;;;;;;;;;5086208;28;20495;-45
2023/03/13 14:02:08;;;;;;;1.20;1.10;;;;;;;;;;5086103;28;20454;-44
2023/03/13 14:04:40;;;;;;;2.80;1.50;;;;;;;;;;5092520;28;20437;-44
2023/03/13 14:07:07;;;;;;;2.30;1.57;;;;;;;;;;5092307;28;20416;-44
2023/03/13 14:09:39;;;;;;;1.80;1.50;;;;;;;;;;5085152;28;20593;-44
2023/03/13 14:12:24;;;;;;;2.50;1.60;;;;;;;;;;5090339;28;20480;-45
2023/03/13 14:15:06;;;;;;;3.00;2.07;;;;;;;;;;5092161;28;20485;-44
2023/03/13 14:17:37;;;;;;;1.90;1.40;;;;;;;;;;5092172;28;20417;-44
2023/03/13 14:20:05;;;;;;;2.70;1.50;;;;;;;;;;5091453;28;20411;-45
2023/03/13 14:22:44;;;;;;;5.30;1.40;;;;;;;;;;5090341;28;20443;-45
2023/03/13 14:25:11;;;;;;;2.70;1.53;;;;;;;;;;5084157;28;20813;-45
2023/03/13 14:27:42;;;;;;;1.50;1.40;;;;;;;;;;5091781;28;20390;-45
2023/03/13 14:30:08;;;;;;;1.60;1.50;;;;;;;;;;5091434;28;20472;-45
2023/03/13 14:32:34;;;;;;;3.37;1.40;;;;;;;;;;5091975;28;20453;-44
2023/03/13 14:35:00;;;;;;;1.50;1.40;;;;;;;;;;5091899;28;20925;-44
2023/03/13 14:37:45;;;;;;;1.60;1.50;;;;;;;;;;5090439;28;20466;-45
2023/03/13 14:40:17;;;;;;;1.33;1.23;;;;;;;;;;5083553;28;20433;-45
2023/03/13 14:42:46;;;;;;;3.87;1.40;;;;;;;;;;5086758;28;20980;-45
2023/03/13 14:45:13;;;;;;;1.47;1.37;;;;;;;;;;5091821;28;20908;-44
2023/03/13 14:47:40;;;;;;;2.20;1.60;;;;;;;;;;5091647;28;20387;-44
2023/03/13 14:50:11;;;;;;;1.60;1.50;;;;;;;;;;5089336;28;20501;-44